createdAt,value
2023-02-05T00:02:04.515Z,50.41
2023-02-05T00:04:32.680Z,50.16
2023-02-05T00:07:00.873Z,50.24
2023-02-05T00:09:29.583Z,49.81
2023-02-05T00:11:58.085Z,49.97
2023-02-05T00:14:28.085Z,50.73
2023-02-05T00:16:56.381Z,50.29
2023-02-05T00:19:24.630Z,51.25
2023-02-05T00:21:52.884Z,50.04
2023-02-05T00:24:21.162Z,51.89
2023-02-05T00:26:49.399Z,51.63
2023-02-05T00:29:17.603Z,51.12
2023-02-05T00:31:49.671Z,50.09
2023-02-05T00:34:18.057Z,50.49
2023-02-05T00:36:46.431Z,50.59
2023-02-05T00:39:14.847Z,50.25
2023-02-05T00:41:43.409Z,49.42
2023-02-05T00:44:11.580Z,49.97
2023-02-05T00:46:39.752Z,49.52
2023-02-05T00:49:09.409Z,49.22
2023-02-05T00:51:37.708Z,49.20
2023-02-05T00:54:06.129Z,50.01
2023-02-05T00:56:34.278Z,50.57
2023-02-05T00:59:02.806Z,51.04
2023-02-05T01:01:31.112Z,50.44
2023-02-05T01:03:59.440Z,51.18
2023-02-05T01:06:29.123Z,51.17
2023-02-05T01:08:57.386Z,50.88
2023-02-05T01:11:25.632Z,50.77
2023-02-05T01:13:53.790Z,51.32
2023-02-05T01:16:22.046Z,50.08
2023-02-05T01:18:50.335Z,50.88
2023-02-05T01:21:18.498Z,51.61
2023-02-05T01:23:48.110Z,50.80
2023-02-05T01:26:16.306Z,52.62
2023-02-05T01:28:44.528Z,53.01
2023-02-05T01:31:13.833Z,53.46
2023-02-05T01:33:42.005Z,54.07
2023-02-05T01:36:10.682Z,54.76
2023-02-05T01:38:38.851Z,56.09
2023-02-05T01:41:09.298Z,55.85
2023-02-05T01:43:37.429Z,55.02
2023-02-05T01:46:23.625Z,55.41
2023-02-05T01:48:56.101Z,58.06
2023-02-05T01:51:25.876Z,55.81
2023-02-05T01:53:54.361Z,55.83
2023-02-05T01:56:27.086Z,55.80
2023-02-05T01:58:58.339Z,54.71
2023-02-05T02:01:28.083Z,55.50
2023-02-05T02:03:58.826Z,54.83
2023-02-05T02:06:27.107Z,55.43
2023-02-05T02:08:55.268Z,55.99
2023-02-05T02:11:27.720Z,55.58
2023-02-05T02:13:58.055Z,55.99
2023-02-05T02:16:28.243Z,55.20
2023-02-05T02:18:56.423Z,54.88
2023-02-05T02:21:55.590Z,55.62
2023-02-05T02:24:39.615Z,55.99
2023-02-05T02:27:22.557Z,56.37
2023-02-05T02:29:57.033Z,54.45
2023-02-05T02:32:31.729Z,53.14
2023-02-05T02:35:06.333Z,53.71
2023-02-05T02:37:41.321Z,53.58
2023-02-05T02:40:15.766Z,53.05
2023-02-05T02:42:48.917Z,53.31
2023-02-05T02:45:22.682Z,53.06
2023-02-05T02:47:56.185Z,52.12
2023-02-05T02:50:32.866Z,52.47
2023-02-05T02:53:05.308Z,52.10
2023-02-05T02:55:39.069Z,51.76
2023-02-05T02:58:11.253Z,52.38
2023-02-05T03:00:43.548Z,52.88
2023-02-05T03:03:15.034Z,51.08
2023-02-05T03:05:45.153Z,51.54
2023-02-05T03:08:19.690Z,52.11
2023-02-05T03:10:52.072Z,52.76
2023-02-05T03:13:20.799Z,52.46
2023-02-05T03:15:50.552Z,52.02
2023-02-05T03:18:21.012Z,52.81
2023-02-05T03:20:53.284Z,54.79
2023-02-05T03:23:21.486Z,54.68
2023-02-05T03:25:49.716Z,55.02
2023-02-05T03:28:17.985Z,54.16
2023-02-05T03:30:59.261Z,53.82
2023-02-05T03:33:37.498Z,55.11
2023-02-05T03:36:14.785Z,55.18
2023-02-05T03:38:59.232Z,55.16
2023-02-05T03:42:04.141Z,54.79
2023-02-05T03:44:54.537Z,56.41
2023-02-05T03:47:38.161Z,54.41
2023-02-05T03:50:18.268Z,52.96
2023-02-05T03:52:53.025Z,53.30
2023-02-05T03:55:26.293Z,55.42
2023-02-05T03:58:00.097Z,56.10
2023-02-05T04:00:28.989Z,55.50
2023-02-05T04:02:58.709Z,56.79
2023-02-05T04:05:26.899Z,56.83
2023-02-05T04:07:55.146Z,57.13
2023-02-05T04:10:23.430Z,57.06
2023-02-05T04:12:51.599Z,55.34
2023-02-05T04:15:19.791Z,55.30
2023-02-05T04:17:47.935Z,56.39
2023-02-05T04:20:17.815Z,57.58
2023-02-05T04:22:45.992Z,58.47
2023-02-05T04:25:14.211Z,59.23
2023-02-05T04:27:42.489Z,59.80
2023-02-05T04:30:12.195Z,60.31
2023-02-05T04:32:40.406Z,60.81
2023-02-05T04:35:08.940Z,61.05
2023-02-05T04:37:38.579Z,62.04
2023-02-05T04:40:08.251Z,61.85
2023-02-05T04:42:36.462Z,61.44
2023-02-05T04:45:06.018Z,62.14
2023-02-05T04:47:34.897Z,61.32
2023-02-05T04:50:03.101Z,61.21
2023-02-05T04:52:31.283Z,60.76
2023-02-05T04:55:00.891Z,61.20
2023-02-05T04:57:29.025Z,62.33
2023-02-05T04:59:57.240Z,62.76
2023-02-05T05:02:26.081Z,62.03
2023-02-05T05:04:54.198Z,64.09
2023-02-05T05:07:22.340Z,63.44
2023-02-05T05:09:52.327Z,63.67
2023-02-05T05:12:22.070Z,63.71
2023-02-05T05:14:50.260Z,63.28
2023-02-05T05:17:18.340Z,64.17
2023-02-05T05:19:46.553Z,63.89
2023-02-05T05:22:14.735Z,64.91
2023-02-05T05:24:42.930Z,66.38
2023-02-05T05:27:11.057Z,66.34
2023-02-05T05:29:40.811Z,68.03
2023-02-05T05:32:09.046Z,68.83
2023-02-05T05:34:37.303Z,70.25
2023-02-05T05:37:05.474Z,71.22
2023-02-05T05:39:51.141Z,72.04
2023-02-05T05:42:36.589Z,68.42
2023-02-05T05:45:06.667Z,71.20
2023-02-05T05:47:34.877Z,73.60
2023-02-05T05:50:03.089Z,76.16
2023-02-05T05:52:32.582Z,78.16
2023-02-05T05:55:01.349Z,80.01
2023-02-05T05:57:29.505Z,81.41
2023-02-05T05:59:57.603Z,82.43
2023-02-05T06:02:27.282Z,83.23
2023-02-05T06:04:55.445Z,83.36
2023-02-05T06:07:23.551Z,84.12
2023-02-05T06:09:51.576Z,84.32
2023-02-05T06:12:19.698Z,84.47
2023-02-05T06:14:48.052Z,83.84
2023-02-05T06:17:16.219Z,84.47
2023-02-05T06:19:45.907Z,84.81
2023-02-05T06:22:14.061Z,85.38
2023-02-05T06:24:42.228Z,85.36
2023-02-05T06:27:10.442Z,85.39
2023-02-05T06:29:38.613Z,85.03
2023-02-05T06:32:06.908Z,83.87
2023-02-05T06:34:35.107Z,83.36
2023-02-05T06:37:04.711Z,83.66
2023-02-05T06:39:32.895Z,83.95
2023-02-05T06:42:00.908Z,83.70
2023-02-05T06:44:28.838Z,83.01
2023-02-05T06:46:56.699Z,83.36
2023-02-05T06:49:24.844Z,81.73
2023-02-05T06:51:53.076Z,81.68
2023-02-05T06:54:22.601Z,81.67
2023-02-05T06:56:50.796Z,82.60
2023-02-05T06:59:18.883Z,82.83
2023-02-05T07:01:46.994Z,83.14
2023-02-05T07:04:15.108Z,83.82
2023-02-05T07:06:43.412Z,84.17
2023-02-05T07:09:11.629Z,84.86
2023-02-05T07:11:41.316Z,85.03
2023-02-05T07:14:09.483Z,85.35
2023-02-05T07:16:37.690Z,85.56
2023-02-05T07:19:05.809Z,85.50
2023-02-05T07:21:34.047Z,85.69
2023-02-05T07:24:02.689Z,85.13
2023-02-05T07:26:30.948Z,85.38
2023-02-05T07:29:00.619Z,84.02
2023-02-05T07:31:28.822Z,84.68
2023-02-05T07:33:57.890Z,84.04
2023-02-05T07:36:26.037Z,82.42
2023-02-05T07:38:53.932Z,81.78
2023-02-05T07:41:22.093Z,81.71
2023-02-05T07:43:52.280Z,82.41
2023-02-05T07:46:22.542Z,81.87
2023-02-05T07:48:51.015Z,82.43
2023-02-05T07:51:21.278Z,80.75
2023-02-05T07:53:49.866Z,80.54
2023-02-05T07:56:21.731Z,79.78
2023-02-05T07:58:51.037Z,80.08
2023-02-05T08:01:19.301Z,81.44
2023-02-05T08:03:48.976Z,81.90
2023-02-05T08:06:17.674Z,81.61
2023-02-05T08:08:45.801Z,81.69
2023-02-05T08:11:16.213Z,82.83
2023-02-05T08:13:44.511Z,82.59
2023-02-05T08:16:13.434Z,81.23
2023-02-05T08:18:41.657Z,80.00
2023-02-05T08:21:11.296Z,80.71
2023-02-05T08:23:39.428Z,79.80
2023-02-05T08:26:07.715Z,79.94
2023-02-05T08:28:35.913Z,78.13
2023-02-05T08:31:10.819Z,77.15
2023-02-05T08:33:38.954Z,76.34
2023-02-05T08:36:08.000Z,76.52
2023-02-05T08:38:37.876Z,73.64
2023-02-05T08:41:12.619Z,72.20
2023-02-05T08:43:42.954Z,73.60
2023-02-05T08:46:13.219Z,73.65
2023-02-05T08:48:41.733Z,72.71
2023-02-05T08:51:10.802Z,72.88
2023-02-05T08:53:40.989Z,73.43
2023-02-05T08:56:10.917Z,74.42
2023-02-05T08:58:39.846Z,74.33
2023-02-05T09:01:11.075Z,76.78
2023-02-05T09:03:39.590Z,74.30
2023-02-05T09:06:10.110Z,72.66
2023-02-05T09:08:40.178Z,72.89
2023-02-05T09:11:08.938Z,72.46
2023-02-05T09:13:37.815Z,72.43
2023-02-05T09:16:06.459Z,69.11
2023-02-05T09:18:34.658Z,69.58
2023-02-05T09:21:08.159Z,71.61
2023-02-05T09:23:36.430Z,70.38
2023-02-05T09:26:07.143Z,69.92
2023-02-05T09:28:35.305Z,68.91
2023-02-05T09:31:08.383Z,69.77
2023-02-05T09:33:36.746Z,67.23
2023-02-05T09:36:09.750Z,65.60
2023-02-05T09:38:38.221Z,67.03
2023-02-05T09:41:12.094Z,66.71
2023-02-05T09:43:52.840Z,66.58
2023-02-05T09:46:28.980Z,65.35
2023-02-05T09:49:03.281Z,64.27
2023-02-05T09:51:36.330Z,62.97
2023-02-05T09:54:14.583Z,62.10
2023-02-05T09:56:45.002Z,61.60
2023-02-05T09:59:17.475Z,61.33
2023-02-05T10:01:50.906Z,61.34
2023-02-05T10:04:19.734Z,61.62
2023-02-05T10:07:15.954Z,62.64
2023-02-05T10:10:18.765Z,61.39
2023-02-05T10:13:06.301Z,60.04
2023-02-05T10:15:48.514Z,59.89
2023-02-05T10:18:24.962Z,60.94
2023-02-05T10:21:02.555Z,60.03
2023-02-05T10:23:51.795Z,59.58
2023-02-05T10:26:20.793Z,57.44
2023-02-05T10:29:12.852Z,56.76
2023-02-05T10:31:45.603Z,57.48
2023-02-05T10:34:20.328Z,57.62
2023-02-05T10:36:53.469Z,57.13
2023-02-05T10:39:23.270Z,56.11
2023-02-05T10:41:56.760Z,56.79
2023-02-05T10:44:30.774Z,57.85
2023-02-05T10:47:04.608Z,55.73
2023-02-05T10:49:44.160Z,55.83
2023-02-05T10:52:14.529Z,54.29
2023-02-05T10:54:43.264Z,55.02
2023-02-05T10:57:16.024Z,55.48
2023-02-05T10:59:54.178Z,54.15
2023-02-05T11:02:23.563Z,53.14
2023-02-05T11:04:57.927Z,54.74
2023-02-05T11:07:28.639Z,53.69
2023-02-05T11:09:57.045Z,53.92
2023-02-05T11:12:30.506Z,54.32
2023-02-05T11:15:02.408Z,53.28
2023-02-05T11:17:34.415Z,52.24
2023-02-05T11:20:06.899Z,52.58
2023-02-05T11:22:39.625Z,51.97
2023-02-05T11:25:15.568Z,50.86
2023-02-05T11:27:53.735Z,51.86
2023-02-05T11:30:51.829Z,53.30
2023-02-05T11:33:28.221Z,52.49
2023-02-05T11:35:58.769Z,50.33
2023-02-05T11:38:32.414Z,52.81
2023-02-05T11:41:04.574Z,51.83
2023-02-05T11:43:34.942Z,52.85
2023-02-05T11:46:08.290Z,52.20
2023-02-05T11:48:42.216Z,50.09
2023-02-05T11:51:14.666Z,49.60
2023-02-05T11:53:51.756Z,49.30
2023-02-05T11:56:25.388Z,49.04
2023-02-05T11:59:01.301Z,50.00
2023-02-05T12:01:34.223Z,50.12
2023-02-05T12:04:05.916Z,49.37
2023-02-05T12:06:44.466Z,50.26
2023-02-05T12:09:15.986Z,48.63
2023-02-05T12:12:06.655Z,49.20
2023-02-05T12:14:42.523Z,47.91
2023-02-05T12:17:31.880Z,48.65
2023-02-05T12:20:07.211Z,47.09
2023-02-05T12:22:52.722Z,48.98
2023-02-05T12:25:26.909Z,49.27
2023-02-05T12:28:18.394Z,49.18
2023-02-05T12:30:58.154Z,48.19
2023-02-05T12:33:45.512Z,46.80
2023-02-05T12:36:29.807Z,46.40
2023-02-05T12:39:10.412Z,47.12
2023-02-05T12:41:57.553Z,45.22
2023-02-05T12:44:38.762Z,46.13
2023-02-05T12:47:24.069Z,44.08
2023-02-05T12:50:11.999Z,46.01
2023-02-05T12:52:56.274Z,42.83
2023-02-05T12:55:35.905Z,43.55
2023-02-05T12:58:07.044Z,42.81
2023-02-05T13:00:42.329Z,45.40
2023-02-05T13:03:18.499Z,45.64
2023-02-05T13:05:52.702Z,45.63
2023-02-05T13:08:26.466Z,47.33
2023-02-05T13:10:57.708Z,45.20
2023-02-05T13:13:31.709Z,46.19
2023-02-05T13:16:05.644Z,47.07
2023-02-05T13:18:38.787Z,47.46
2023-02-05T13:21:30.019Z,45.36
2023-02-05T13:24:23.607Z,44.81
2023-02-05T13:27:09.169Z,45.04
2023-02-05T13:29:51.564Z,45.71
2023-02-05T13:32:26.006Z,43.67
2023-02-05T13:34:56.741Z,44.47
2023-02-05T13:37:43.863Z,43.59
2023-02-05T13:40:28.025Z,44.17
2023-02-05T13:43:19.137Z,41.41
2023-02-05T13:46:05.339Z,39.79
2023-02-05T13:49:12.382Z,38.75
2023-02-05T13:51:52.441Z,36.00
2023-02-05T13:54:51.720Z,33.82
2023-02-05T13:57:51.569Z,33.62
2023-02-05T14:00:20.894Z,32.45
2023-02-05T14:02:50.602Z,32.25
2023-02-05T14:05:30.608Z,31.02
2023-02-05T14:08:03.244Z,31.37
2023-02-05T14:10:36.425Z,31.95
2023-02-05T14:13:14.234Z,30.75
2023-02-05T14:15:44.436Z,29.65
2023-02-05T14:18:14.416Z,29.37
2023-02-05T14:20:45.702Z,28.21
2023-02-05T14:23:16.596Z,27.62
2023-02-05T14:26:11.982Z,26.97
2023-02-05T14:28:57.964Z,26.10
2023-02-05T14:31:49.712Z,24.96
2023-02-05T14:34:49.039Z,26.88
2023-02-05T14:37:34.829Z,28.22
2023-02-05T14:40:21.615Z,32.33
2023-02-05T14:42:57.135Z,34.00
2023-02-05T14:45:30.953Z,36.69
2023-02-05T14:47:59.668Z,38.51
2023-02-05T14:50:30.253Z,40.93
2023-02-05T14:53:00.981Z,41.71
2023-02-05T14:55:34.737Z,41.72
2023-02-05T14:58:09.557Z,41.92
2023-02-05T15:00:40.922Z,45.12
2023-02-05T15:03:40.279Z,46.80
2023-02-05T15:06:15.898Z,45.82
2023-02-05T15:08:50.172Z,49.50
2023-02-05T15:11:28.216Z,48.51
2023-02-05T15:14:44.513Z,48.14
2023-02-05T15:17:52.092Z,48.87
2023-02-05T15:20:26.585Z,49.32
2023-02-05T15:23:04.731Z,48.82
2023-02-05T15:25:38.973Z,50.47
2023-02-05T15:28:17.960Z,54.83
2023-02-05T15:30:58.895Z,57.77
2023-02-05T15:33:35.751Z,56.73
2023-02-05T15:36:22.345Z,53.63
2023-02-05T15:38:59.333Z,57.71
2023-02-05T15:41:27.812Z,60.75
2023-02-05T15:44:00.296Z,60.82
2023-02-05T15:46:29.864Z,58.66
2023-02-05T15:48:59.783Z,59.43
2023-02-05T15:51:32.992Z,57.63
2023-02-05T15:54:04.516Z,58.20
2023-02-05T15:56:37.444Z,60.66
2023-02-05T15:59:13.124Z,62.75
2023-02-05T16:01:46.901Z,66.12
2023-02-05T16:04:19.652Z,66.51
2023-02-05T16:06:49.595Z,66.16
2023-02-05T16:09:20.637Z,68.30
2023-02-05T16:11:49.754Z,64.10
2023-02-05T16:14:20.156Z,64.75
2023-02-05T16:17:00.957Z,64.14
2023-02-05T16:19:36.162Z,63.95
2023-02-05T16:22:23.182Z,64.98
2023-02-05T16:24:54.149Z,65.25
2023-02-05T16:27:29.931Z,64.63
2023-02-05T16:30:06.195Z,62.06
2023-02-05T16:32:39.502Z,59.82
2023-02-05T16:35:14.705Z,60.03
2023-02-05T16:37:44.900Z,61.14
2023-02-05T16:40:13.729Z,61.35
2023-02-05T16:42:44.381Z,61.74
2023-02-05T16:45:25.385Z,61.15
2023-02-05T16:48:21.426Z,60.53
2023-02-05T16:50:50.358Z,60.95
2023-02-05T16:53:25.536Z,59.05
2023-02-05T16:55:58.436Z,60.09
2023-02-05T16:58:29.882Z,62.58
2023-02-05T17:01:00.778Z,62.80
2023-02-05T17:03:35.645Z,62.36
2023-02-05T17:06:06.183Z,62.59
2023-02-05T17:08:38.503Z,61.87
2023-02-05T17:11:08.667Z,63.17
2023-02-05T17:13:42.366Z,61.73
2023-02-05T17:16:27.987Z,64.11
2023-02-05T17:18:58.372Z,62.83
2023-02-05T17:21:32.025Z,63.10
2023-02-05T17:24:04.944Z,64.47
2023-02-05T17:26:35.457Z,67.13
2023-02-05T17:29:07.281Z,66.98
2023-02-05T17:31:38.331Z,66.24
2023-02-05T17:34:06.984Z,63.69
2023-02-05T17:36:35.126Z,61.18
2023-02-05T17:39:04.799Z,61.58
2023-02-05T17:41:55.398Z,62.18
2023-02-05T17:44:23.602Z,63.88
2023-02-05T17:46:54.289Z,63.71
2023-02-05T17:49:22.535Z,63.98
2023-02-05T17:51:50.751Z,64.88
2023-02-05T17:54:22.067Z,64.93
2023-02-05T17:56:51.314Z,63.95
2023-02-05T17:59:22.042Z,64.65
2023-02-05T18:01:51.475Z,65.12
2023-02-05T18:04:20.603Z,65.54
2023-02-05T18:06:50.336Z,66.40
2023-02-05T18:09:20.170Z,64.75
2023-02-05T18:11:48.329Z,65.31
2023-02-05T18:14:16.540Z,65.42
2023-02-05T18:16:44.755Z,65.93
2023-02-05T18:19:13.947Z,67.63
2023-02-05T18:21:42.345Z,68.64
2023-02-05T18:24:10.526Z,68.55
2023-02-05T18:26:40.105Z,68.11
2023-02-05T18:29:08.338Z,67.72
2023-02-05T18:31:37.638Z,65.39
2023-02-05T18:34:05.832Z,65.65
2023-02-05T18:36:33.967Z,67.84
2023-02-05T18:39:02.188Z,69.51
2023-02-05T18:41:31.662Z,67.77
2023-02-05T18:44:01.248Z,67.41
2023-02-05T18:46:29.456Z,69.56
2023-02-05T18:48:57.740Z,71.99
2023-02-05T18:51:25.886Z,70.38
2023-02-05T18:53:54.693Z,69.89
2023-02-05T18:56:25.059Z,70.89
2023-02-05T18:58:56.428Z,68.71
2023-02-05T19:01:27.034Z,68.33
2023-02-05T19:03:55.303Z,70.42
2023-02-05T19:06:24.209Z,68.98
2023-02-05T19:08:52.441Z,68.46
2023-02-05T19:11:24.168Z,68.94
2023-02-05T19:13:57.359Z,67.93
2023-02-05T19:16:28.152Z,66.33
2023-02-05T19:18:56.621Z,70.19
2023-02-05T19:21:26.819Z,68.91
2023-02-05T19:23:57.262Z,68.27
2023-02-05T19:26:28.103Z,68.81
2023-02-05T19:28:58.135Z,68.17
2023-02-05T19:31:30.602Z,67.53
2023-02-05T19:33:59.176Z,65.96
2023-02-05T19:36:27.467Z,66.25
2023-02-05T19:38:55.889Z,67.41
2023-02-05T19:41:27.200Z,68.33
2023-02-05T19:43:56.877Z,66.52
2023-02-05T19:46:29.250Z,63.56
2023-02-05T19:49:00.888Z,62.73
2023-02-05T19:51:29.067Z,63.46
2023-02-05T19:53:58.376Z,66.01
2023-02-05T19:56:26.931Z,66.57
2023-02-05T19:58:56.940Z,64.71
2023-02-05T20:01:28.504Z,63.76
2023-02-05T20:03:58.322Z,64.68
2023-02-05T20:06:29.175Z,64.64
2023-02-05T20:08:57.674Z,64.77
2023-02-05T20:11:25.871Z,66.75
2023-02-05T20:13:54.545Z,68.87
2023-02-05T20:16:24.208Z,69.07
2023-02-05T20:18:56.490Z,69.50
2023-02-05T20:21:25.543Z,69.28
2023-02-05T20:23:54.258Z,69.10
2023-02-05T20:26:23.047Z,69.67
2023-02-05T20:29:13.814Z,70.21
2023-02-05T20:31:43.924Z,70.24
2023-02-05T20:34:18.480Z,69.54
2023-02-05T20:36:47.902Z,70.65
2023-02-05T20:39:17.956Z,70.30
2023-02-05T20:41:46.828Z,70.11
2023-02-05T20:44:15.496Z,69.99
2023-02-05T20:46:44.446Z,70.29
2023-02-05T20:49:14.116Z,69.76
2023-02-05T20:51:42.773Z,69.17
2023-02-05T20:54:11.418Z,70.36
2023-02-05T20:56:39.704Z,70.95
2023-02-05T20:59:09.598Z,71.50
2023-02-05T21:01:39.017Z,72.32
2023-02-05T21:04:09.670Z,71.35
2023-02-05T21:06:41.406Z,70.48
2023-02-05T21:09:10.802Z,70.31
2023-02-05T21:11:39.563Z,70.06
2023-02-05T21:14:09.049Z,69.83
2023-02-05T21:16:38.281Z,69.36
2023-02-05T21:19:08.108Z,69.98
2023-02-05T21:21:39.054Z,69.99
2023-02-05T21:24:09.645Z,70.95
2023-02-05T21:26:40.300Z,71.72
2023-02-05T21:29:11.214Z,71.38
2023-02-05T21:31:41.916Z,71.20
2023-02-05T21:34:12.288Z,70.93
2023-02-05T21:36:42.201Z,72.13
2023-02-05T21:39:12.080Z,71.47
2023-02-05T21:41:40.558Z,71.45
2023-02-05T21:44:08.684Z,70.75
2023-02-05T21:46:36.933Z,70.77
2023-02-05T21:49:05.269Z,70.93
2023-02-05T21:51:35.151Z,72.06
2023-02-05T21:54:07.016Z,73.24
2023-02-05T21:56:37.470Z,74.10
2023-02-05T21:59:05.867Z,72.61
2023-02-05T22:01:37.408Z,74.30
2023-02-05T22:04:09.162Z,73.23
2023-02-05T22:06:37.910Z,72.01
2023-02-05T22:09:09.361Z,72.53
2023-02-05T22:11:39.466Z,74.28
2023-02-05T22:14:09.074Z,74.52
2023-02-05T22:16:38.305Z,75.21
2023-02-05T22:19:07.028Z,74.89
2023-02-05T22:21:37.014Z,74.45
2023-02-05T22:24:09.484Z,74.18
2023-02-05T22:26:46.571Z,72.85
2023-02-05T22:29:16.335Z,72.07
2023-02-05T22:31:44.930Z,72.08
2023-02-05T22:34:13.349Z,71.49
2023-02-05T22:36:41.594Z,72.23
2023-02-05T22:39:11.390Z,71.81
2023-02-05T22:41:41.075Z,72.32
2023-02-05T22:44:10.978Z,73.52
2023-02-05T22:46:42.836Z,73.19
2023-02-05T22:49:15.394Z,73.51
2023-02-05T22:51:44.750Z,73.28
2023-02-05T22:54:15.378Z,74.23
2023-02-05T22:56:43.749Z,73.49
2023-02-05T22:59:12.190Z,73.47
2023-02-05T23:01:40.982Z,72.76
2023-02-05T23:04:10.624Z,72.50
2023-02-05T23:06:40.554Z,72.38
2023-02-05T23:09:10.932Z,73.28
2023-02-05T23:11:40.977Z,74.04
2023-02-05T23:14:09.976Z,73.98
2023-02-05T23:16:39.838Z,75.43
2023-02-05T23:19:11.149Z,75.83
2023-02-05T23:21:40.828Z,76.30
2023-02-05T23:24:10.355Z,75.39
2023-02-05T23:26:42.518Z,74.72
2023-02-05T23:29:12.431Z,75.26
2023-02-05T23:31:40.875Z,75.55
2023-02-05T23:34:09.076Z,75.30
2023-02-05T23:36:37.217Z,75.42
2023-02-05T23:39:05.680Z,75.57
2023-02-05T23:41:37.064Z,75.67
2023-02-05T23:44:11.193Z,73.76
2023-02-05T23:46:39.940Z,75.34
2023-02-05T23:49:08.818Z,76.12
2023-02-05T23:51:37.363Z,76.73
2023-02-05T23:54:06.573Z,76.59
2023-02-05T23:56:35.106Z,77.74
2023-02-05T23:59:03.869Z,78.52
